Airfield :







YOU CAN JOIN US ON...

 
LOGIN :

Register | Disclaimer

   EN    FR    IT 

 









Legend :    VFR   Marginal VFR   IFR   Intensive IFR   Very Intensive IFR
Visi :
Ceiling :
>= 8 km
>= 3000ft
5 to 8 km
1000 to 3000 ft
1500m to 5 km
500 to 1000 ft
800 to 1500m
200 to 500 ft
< 800m
< 200 ft
Symbols :   Thunderstorms  Fog  Heavy snow  Heavy precipitations  Wind > 20 kt







- Airport Elevation : 357 ft
- IATA code : YSJ


CYSJ - Saint John

CURRENT METAR :
  • 190200Z 06002KT 15SM SKC 03/03 A3034 RMK SLP278

EXPIRED METARs :
  • 190136Z 00000KT 15SM SKC 02/02 A3033 RMK SLP276
  • 190100Z VRB02KT 15SM SKC 04/03 A3032 RMK SLP272
  • 190000Z 00000KT 15SM SKC 06/05 A3030 RMK SLP267

TAF TAF CYSJ
Valid from the 19 at 00:00 until the 19 at 12:00 UTC


182338Z 1900/1912 VRB03KT P6SM SKC
PROB30 1907/1911 3/4SM BR BKN003 RMK NXT FCST BY 190600Z
No reported NOTAMs for that airfield.



MET'MAP, your aeronautical weather chart ! - Copyright ORBIFLY December 2007 - Disclaimer

ORBIFLY MET'MAP TEAM :

Programming & Development : Alexandra Zaïnal
Concept & Development : Baudouin d'Aumeries
Co-Development & Prog : Marc-Olivier Méhu
Technical & hardware support : Manuel Goepfert

Contact : metmap@orbifly.com




SOURCES & CREDITS :

   NOAA